Time;durP1;ratioP1;P1;durP2;ratioP2;P2;SDS_P1;SDS_P2;PMS_P1;PMS_P2;Temp;Humidity;BMP_temperature;BMP_pressure;BME280_temperature;BME280_humidity;BME280_pressure;Samples;Min_cycle;Max_cycle;Signal;HPM_P1;HPM_P2
2021/01/20 00:01:28;;;;;;;1.97;1.50;;;;;;;2.59;79.42;95739.25;5037024;28;20491;-89
2021/01/20 00:03:54;;;;;;;1.87;1.40;;;;;;;2.54;79.98;95733.94;5035822;28;20439;-89
2021/01/20 00:06:20;;;;;;;1.90;1.37;;;;;;;2.50;80.55;95731.59;5036311;28;20435;-89
2021/01/20 00:08:47;;;;;;;3.83;1.90;;;;;;;2.50;80.26;95731.59;5037813;28;20800;-89
2021/01/20 00:11:14;;;;;;;1.47;1.37;;;;;;;2.40;80.55;95725.16;5038275;28;20449;-88
2021/01/20 00:13:40;;;;;;;1.20;1.10;;;;;;;2.34;81.04;95726.44;5037680;28;20431;-89
2021/01/20 00:16:07;;;;;;;2.57;1.40;;;;;;;2.36;81.30;95716.75;5039656;28;20495;-89
2021/01/20 00:18:33;;;;;;;7.93;1.70;;;;;;;2.40;81.07;95711.88;5036190;28;20470;-88
2021/01/20 00:20:59;;;;;;;1.70;1.10;;;;;;;2.40;81.44;95717.19;5035655;28;20483;-88
2021/01/20 00:23:26;;;;;;;6.70;1.63;;;;;;;2.51;81.13;95701.06;5035859;28;20481;-88
2021/01/20 00:25:52;;;;;;;4.70;1.50;;;;;;;2.56;81.25;95704.91;5035740;28;20459;-90
2021/01/20 00:28:19;;;;;;;3.00;1.67;;;;;;;2.70;81.11;95696.47;5036402;28;20811;-89
2021/01/20 00:30:46;;;;;;;2.97;1.27;;;;;;;2.69;80.86;95694.34;5036658;28;20451;-89
2021/01/20 00:33:13;;;;;;;3.80;1.80;;;;;;;2.70;81.38;95687.78;5034923;28;20439;-86
2021/01/20 00:35:40;;;;;;;3.40;1.53;;;;;;;2.74;81.32;95690.88;5035358;28;20449;-87
2021/01/20 00:38:06;;;;;;;3.60;1.77;;;;;;;2.78;81.13;95696.63;5036093;28;20435;-88
2021/01/20 00:40:32;;;;;;;2.27;1.20;;;;;;;2.77;81.31;95691.81;5035313;28;20490;-88
2021/01/20 00:42:59;;;;;;;2.63;1.53;;;;;;;2.77;81.23;95689.88;5034837;28;20448;-88
2021/01/20 00:45:26;;;;;;;2.43;1.33;;;;;;;2.69;81.58;95689.72;5035111;28;20435;-88
2021/01/20 00:47:52;;;;;;;4.67;1.30;;;;;;;2.68;81.99;95696.28;5036319;28;20439;-90
2021/01/20 00:50:19;;;;;;;3.17;1.83;;;;;;;2.62;81.94;95690.31;5035664;28;20494;-90
2021/01/20 00:52:45;;;;;;;2.30;1.43;;;;;;;2.61;82.20;95688.13;5035897;28;20435;-89
2021/01/20 00:55:14;;;;;;;1.73;1.43;;;;;;;2.69;81.85;95687.03;5035758;28;20435;-87
2021/01/20 00:57:40;;;;;;;2.20;1.33;;;;;;;2.72;81.92;95689.94;5035362;28;20486;-87
2021/01/20 01:00:08;;;;;;;4.53;1.70;;;;;;;2.69;82.24;95686.34;5035060;28;20502;-89
2021/01/20 01:02:36;;;;;;;2.07;1.30;;;;;;;2.77;82.66;95678.50;5035241;28;20447;-89
2021/01/20 01:05:03;;;;;;;4.60;1.37;;;;;;;2.78;82.05;95680.66;5035409;28;20595;-87
2021/01/20 01:07:29;;;;;;;1.80;1.10;;;;;;;2.82;82.27;95683.03;5036131;28;20458;-88
2021/01/20 01:09:55;;;;;;;2.87;1.67;;;;;;;2.86;82.39;95681.50;5036424;28;20874;-88
2021/01/20 01:12:22;;;;;;;2.47;1.33;;;;;;;3.01;82.13;95683.72;5037797;28;20541;-88
2021/01/20 01:14:48;;;;;;;2.43;1.10;;;;;;;3.07;81.83;95679.06;5040205;28;20423;-86
2021/01/20 01:17:15;;;;;;;2.20;1.67;;;;;;;3.10;81.88;95678.03;5057428;28;20458;-86
2021/01/20 01:19:42;;;;;;;2.43;1.70;;;;;;;3.16;81.59;95684.00;5044253;28;20485;-86
2021/01/20 01:22:09;;;;;;;3.40;1.50;;;;;;;3.21;81.42;95675.94;5034765;28;20975;-87
2021/01/20 01:24:35;;;;;;;1.30;1.10;;;;;;;3.21;81.52;95670.59;5034796;28;20463;-87
2021/01/20 01:27:01;;;;;;;2.37;2.00;;;;;;;3.24;81.34;95669.59;5034869;28;20430;-88
2021/01/20 01:29:28;;;;;;;4.40;1.77;;;;;;;3.22;81.39;95658.72;5034844;28;20841;-84
2021/01/20 01:31:54;;;;;;;2.43;1.50;;;;;;;3.28;81.34;95661.28;5034393;28;20435;-84
2021/01/20 01:34:21;;;;;;;1.57;1.23;;;;;;;3.23;81.60;95662.81;5034796;28;20439;-83
2021/01/20 01:36:48;;;;;;;1.30;1.20;;;;;;;3.32;81.48;95656.38;5036035;28;20451;-83
2021/01/20 01:39:15;;;;;;;2.80;1.33;;;;;;;3.24;81.61;95658.19;5036376;28;20876;-83
2021/01/20 01:41:41;;;;;;;2.37;1.37;;;;;;;3.29;81.54;95654.03;5034678;28;20494;-86
2021/01/20 01:44:08;;;;;;;1.80;1.00;;;;;;;3.36;81.20;95661.41;5034207;28;20462;-85
2021/01/20 01:46:34;;;;;;;3.70;1.30;;;;;;;3.36;81.67;95651.47;5033898;28;20534;-85
2021/01/20 01:49:01;;;;;;;2.03;1.20;;;;;;;3.42;81.24;95659.38;5034501;28;20453;-85
2021/01/20 01:51:27;;;;;;;3.20;1.60;;;;;;;3.42;80.90;95644.09;5034627;28;20443;-84
2021/01/20 01:53:55;;;;;;;2.60;1.20;;;;;;;3.43;80.92;95644.81;5034706;28;20784;-84
2021/01/20 01:56:25;;;;;;;3.30;1.30;;;;;;;3.38;81.19;95649.03;5034371;28;20482;-84
2021/01/20 01:58:52;;;;;;;2.90;1.60;;;;;;;3.29;81.51;95644.06;5034778;28;20451;-84
2021/01/20 02:01:19;;;;;;;2.00;1.63;;;;;;;3.36;81.59;95648.06;5037594;28;20491;-84
2021/01/20 02:03:48;;;;;;;2.43;1.10;;;;;;;3.41;81.15;95636.63;5039294;28;20923;-83
2021/01/20 02:06:15;;;;;;;2.13;1.07;;;;;;;3.43;81.42;95642.16;5039273;28;20448;-84
2021/01/20 02:08:42;;;;;;;1.67;1.10;;;;;;;3.37;81.61;95636.91;5039359;28;20431;-84
2021/01/20 02:11:23;;;;;;;2.90;1.77;;;;;;;3.40;81.41;95638.56;5038741;28;20479;-84
2021/01/20 02:14:01;;;;;;;2.00;1.33;;;;;;;3.33;81.70;95638.44;5038949;28;20920;-85
2021/01/20 02:16:31;;;;;;;1.90;1.30;;;;;;;3.36;81.67;95632.78;5038971;28;20411;-84
2021/01/20 02:19:01;;;;;;;1.53;1.20;;;;;;;3.34;81.55;95631.88;5053441;28;20418;-84
2021/01/20 02:22:05;;;;;;;2.23;1.30;;;;;;;3.26;82.03;95641.72;5061836;28;20493;-84
2021/01/20 02:24:41;;;;;;;1.83;1.20;;;;;;;3.21;82.17;95629.91;5061796;28;20418;-83
2021/01/20 02:27:16;;;;;;;1.90;1.73;;;;;;;3.25;82.13;95625.00;5052731;28;20814;-86
2021/01/20 02:29:52;;;;;;;3.03;1.70;;;;;;;3.34;82.03;95631.88;5038490;28;20840;-85
2021/01/20 02:32:19;;;;;;;2.30;1.10;;;;;;;3.32;81.83;95629.00;5037894;28;20450;-85
2021/01/20 02:34:47;;;;;;;1.77;1.20;;;;;;;3.28;81.96;95626.63;5036434;28;20438;-85
2021/01/20 02:37:16;;;;;;;2.70;1.30;;;;;;;3.22;82.18;95631.34;5037563;28;20438;-85
2021/01/20 02:39:43;;;;;;;2.83;1.47;;;;;;;3.19;82.84;95629.69;5037151;28;20496;-84
2021/01/20 02:42:10;;;;;;;1.97;1.30;;;;;;;3.14;82.78;95633.88;5037254;28;20483;-85
2021/01/20 02:44:36;;;;;;;3.23;1.40;;;;;;;3.11;82.78;95626.16;5038894;28;20436;-83
2021/01/20 02:47:05;;;;;;;3.60;1.90;;;;;;;3.15;82.97;95621.28;5038802;28;20796;-84
2021/01/20 02:49:32;;;;;;;2.07;1.40;;;;;;;3.19;83.09;95621.69;5038832;28;20971;-84
2021/01/20 02:52:08;;;;;;;2.87;1.40;;;;;;;3.28;82.84;95623.97;5037522;28;20452;-85
2021/01/20 02:54:35;;;;;;;2.00;1.60;;;;;;;3.36;82.53;95619.47;5038013;28;20842;-85
2021/01/20 02:57:02;;;;;;;3.73;1.87;;;;;;;3.27;82.84;95624.47;5037583;28;20440;-85
2021/01/20 02:59:31;;;;;;;2.40;1.30;;;;;;;3.27;82.72;95619.88;5037573;28;20497;-85
2021/01/20 03:02:01;;;;;;;3.80;1.20;;;;;;;3.23;82.87;95612.16;5038520;28;20482;-85
2021/01/20 03:04:30;;;;;;;2.20;1.20;;;;;;;3.19;83.20;95613.69;5038953;28;20432;-85
2021/01/20 03:06:59;;;;;;;1.43;1.20;;;;;;;3.31;82.58;95614.22;5039199;28;20501;-85
2021/01/20 03:09:26;;;;;;;2.07;1.53;;;;;;;3.22;83.12;95604.69;5038745;28;20455;-85
2021/01/20 03:11:53;;;;;;;2.37;1.70;;;;;;;3.26;83.15;95604.41;5038027;28;20830;-84
2021/01/20 03:14:22;;;;;;;5.53;1.40;;;;;;;3.25;83.19;95601.00;5039003;28;20504;-83
2021/01/20 03:16:48;;;;;;;6.37;1.70;;;;;;;3.23;83.25;95598.84;5038583;28;20549;-85
2021/01/20 03:19:14;;;;;;;1.40;1.00;;;;;;;3.27;83.06;95600.47;5036999;28;20451;-85
2021/01/20 03:21:42;;;;;;;1.83;1.20;;;;;;;3.20;83.11;95599.13;5036306;28;20991;-85
2021/01/20 03:24:08;;;;;;;1.90;1.23;;;;;;;3.31;83.08;95596.28;5036726;28;20526;-85
2021/01/20 03:26:35;;;;;;;2.97;1.43;;;;;;;3.33;82.88;95593.84;5036832;28;20506;-84
2021/01/20 03:29:01;;;;;;;1.87;1.40;;;;;;;3.32;82.97;95592.38;5036796;28;20431;-85
2021/01/20 03:31:28;;;;;;;2.00;0.87;;;;;;;3.25;83.39;95585.00;5036054;28;20534;-85
2021/01/20 03:33:54;;;;;;;1.87;1.70;;;;;;;3.21;83.70;95587.25;5036836;28;20447;-85
2021/01/20 03:36:20;;;;;;;2.80;1.40;;;;;;;3.33;83.01;95587.78;5036471;28;20467;-84
2021/01/20 03:38:48;;;;;;;11.17;1.40;;;;;;;3.36;82.72;95582.16;5036496;28;20946;-85
2021/01/20 03:41:14;;;;;;;1.70;1.30;;;;;;;3.34;82.98;95583.88;5036348;28;20649;-84
2021/01/20 03:43:40;;;;;;;1.73;1.20;;;;;;;3.24;82.95;95584.28;5037028;28;20824;-84
2021/01/20 03:46:07;;;;;;;1.73;1.07;;;;;;;3.22;83.15;95588.69;5037343;28;20451;-84
2021/01/20 03:48:33;;;;;;;1.67;1.30;;;;;;;3.14;83.33;95585.19;5038072;28;20406;-84
2021/01/20 03:51:00;;;;;;;1.67;1.10;;;;;;;3.06;83.49;95589.69;5037611;28;20474;-84
2021/01/20 03:53:26;;;;;;;1.70;1.10;;;;;;;3.01;84.00;95588.53;5037055;28;20799;-84
2021/01/20 03:55:53;;;;;;;1.20;1.00;;;;;;;2.93;84.04;95585.03;5042015;28;20443;-83
2021/01/20 03:58:20;;;;;;;1.80;1.23;;;;;;;2.86;84.54;95579.56;5059157;28;20428;-84
2021/01/20 04:00:46;;;;;;;2.73;1.40;;;;;;;2.79;85.04;95586.19;5052656;28;20475;-85
2021/01/20 04:03:12;;;;;;;1.80;1.03;;;;;;;2.78;84.93;95576.78;5037677;28;20478;-84
2021/01/20 04:05:39;;;;;;;1.80;1.17;;;;;;;2.79;84.69;95574.84;5037555;28;20447;-84
2021/01/20 04:08:05;;;;;;;4.13;1.57;;;;;;;2.68;85.22;95565.06;5037039;28;20454;-84
2021/01/20 04:10:31;;;;;;;1.23;1.03;;;;;;;2.66;85.34;95572.84;5037386;28;20530;-85
2021/01/20 04:12:59;;;;;;;2.77;1.53;;;;;;;2.68;85.41;95565.06;5037271;28;20434;-85
2021/01/20 04:15:25;;;;;;;1.63;1.27;;;;;;;2.64;85.23;95567.28;5035873;28;20443;-84
2021/01/20 04:17:51;;;;;;;3.20;1.37;;;;;;;2.61;85.59;95566.38;5036016;28;21012;-84
2021/01/20 04:20:18;;;;;;;2.73;1.30;;;;;;;2.53;86.13;95573.50;5035857;28;20544;-84
2021/01/20 04:22:44;;;;;;;2.53;1.30;;;;;;;2.53;86.26;95570.13;5036226;28;20436;-83
2021/01/20 04:25:11;;;;;;;1.80;1.23;;;;;;;2.50;86.40;95571.88;5036144;28;20439;-84
2021/01/20 04:27:38;;;;;;;2.60;1.40;;;;;;;2.48;86.50;95563.66;5036552;28;20451;-85
2021/01/20 04:30:07;;;;;;;2.57;1.43;;;;;;;2.48;86.41;95562.91;5035951;28;20467;-84
2021/01/20 04:32:33;;;;;;;1.60;1.23;;;;;;;2.47;86.57;95558.84;5035844;28;20440;-85
2021/01/20 04:35:00;;;;;;;3.33;1.73;;;;;;;2.44;86.79;95549.94;5035677;28;20437;-85
2021/01/20 04:37:26;;;;;;;2.93;1.50;;;;;;;2.43;86.70;95561.06;5035735;28;20447;-86
2021/01/20 04:39:53;;;;;;;2.50;1.07;;;;;;;2.44;86.72;95549.22;5035258;28;20856;-85
2021/01/20 04:42:19;;;;;;;1.63;1.03;;;;;;;2.45;86.65;95547.97;5034473;28;20495;-85
2021/01/20 04:44:47;;;;;;;2.67;1.50;;;;;;;2.49;86.90;95551.06;5033911;28;20436;-84
2021/01/20 04:47:15;;;;;;;1.93;1.20;;;;;;;2.47;86.87;95545.53;5034833;28;20794;-84
2021/01/20 04:49:45;;;;;;;2.03;0.97;;;;;;;2.61;86.49;95549.66;5035363;28;20497;-85
2021/01/20 04:52:16;;;;;;;1.07;0.97;;;;;;;2.64;86.13;95546.72;5035715;28;21041;-85
2021/01/20 04:54:43;;;;;;;2.90;1.50;;;;;;;2.63;85.98;95555.91;5037958;28;20978;-84
2021/01/20 04:57:11;;;;;;;2.33;1.33;;;;;;;2.65;86.10;95553.50;5035798;28;20435;-85
2021/01/20 04:59:38;;;;;;;2.17;1.37;;;;;;;2.66;86.01;95546.91;5036129;28;20463;-85
2021/01/20 05:02:05;;;;;;;2.67;1.43;;;;;;;2.67;85.97;95550.31;5035623;28;20486;-85
2021/01/20 05:04:32;;;;;;;1.67;1.17;;;;;;;2.63;86.01;95541.91;5035426;28;20496;-86
2021/01/20 05:06:59;;;;;;;1.57;1.30;;;;;;;2.65;85.70;95545.50;5035336;28;20492;-84
2021/01/20 05:09:26;;;;;;;1.93;1.33;;;;;;;2.70;85.96;95546.63;5035756;28;20471;-85
2021/01/20 05:11:52;;;;;;;2.23;1.33;;;;;;;2.71;85.85;95542.75;5035359;28;20539;-84
2021/01/20 05:14:19;;;;;;;2.30;1.70;;;;;;;2.74;85.63;95547.06;5035649;28;20439;-83
2021/01/20 05:16:49;;;;;;;3.13;1.30;;;;;;;2.74;85.62;95541.00;5036323;28;20485;-84
2021/01/20 05:19:16;;;;;;;1.63;1.43;;;;;;;2.80;85.20;95539.69;5058098;28;20511;-84
2021/01/20 05:22:04;;;;;;;3.03;1.30;;;;;;;2.82;85.15;95541.88;5057848;28;20478;-83
2021/01/20 05:24:31;;;;;;;2.60;1.77;;;;;;;2.86;84.59;95539.59;5058465;28;20434;-84
2021/01/20 05:26:58;;;;;;;1.90;1.40;;;;;;;2.83;85.02;95543.28;5044853;28;20424;-84
2021/01/20 05:29:24;;;;;;;8.23;1.90;;;;;;;2.84;85.00;95545.47;5035245;28;20463;-84
2021/01/20 05:31:50;;;;;;;4.83;1.40;;;;;;;2.92;84.92;95540.97;5041044;28;20394;-84
2021/01/20 05:34:25;;;;;;;2.93;1.47;;;;;;;3.01;84.65;95547.84;5057921;28;20482;-84
2021/01/20 05:37:11;;;;;;;2.13;1.93;;;;;;;2.99;84.41;95548.34;5062334;28;20422;-85
2021/01/20 05:39:38;;;;;;;1.73;1.50;;;;;;;3.03;84.86;95551.44;5051016;28;20466;-83
2021/01/20 05:42:07;;;;;;;3.53;1.97;;;;;;;3.08;84.58;95545.31;5038495;28;20469;-85
2021/01/20 05:44:34;;;;;;;1.43;1.20;;;;;;;3.03;84.63;95546.13;5037667;28;20457;-84
2021/01/20 05:47:07;;;;;;;1.83;1.40;;;;;;;3.14;84.22;95535.25;5040054;28;20771;-85
2021/01/20 05:49:34;;;;;;;1.60;1.47;;;;;;;3.13;83.87;95541.81;5039384;28;20473;-85
2021/01/20 05:52:01;;;;;;;2.10;1.50;;;;;;;3.10;83.93;95526.84;5038449;28;20442;-85
2021/01/20 05:54:33;;;;;;;2.43;1.60;;;;;;;3.13;84.02;95533.81;5039368;28;20423;-85
2021/01/20 05:57:13;;;;;;;5.87;1.33;;;;;;;3.25;83.09;95526.38;5038866;28;20474;-85
2021/01/20 05:59:40;;;;;;;3.53;1.70;;;;;;;3.39;82.17;95533.13;5038638;28;20565;-83
2021/01/20 06:02:08;;;;;;;1.73;1.57;;;;;;;3.43;81.66;95532.84;5039134;28;20494;-85
2021/01/20 06:04:35;;;;;;;2.47;1.50;;;;;;;3.50;81.52;95527.63;5039241;28;20454;-85
2021/01/20 06:07:03;;;;;;;1.67;1.00;;;;;;;3.61;80.36;95532.72;5039404;28;21010;-84
2021/01/20 06:09:33;;;;;;;2.47;1.50;;;;;;;3.62;80.54;95531.50;5038834;28;20470;-84
2021/01/20 06:12:00;;;;;;;6.03;2.00;;;;;;;3.64;80.68;95536.31;5039037;28;20451;-85
2021/01/20 06:14:26;;;;;;;2.47;2.00;;;;;;;3.67;80.35;95529.94;5038375;28;20447;-84
2021/01/20 06:17:02;;;;;;;4.17;1.73;;;;;;;3.75;80.30;95526.16;5039741;28;20966;-84
2021/01/20 06:19:30;;;;;;;2.83;1.70;;;;;;;3.79;79.59;95531.88;5039664;28;20425;-83
2021/01/20 06:21:59;;;;;;;2.57;1.17;;;;;;;3.76;80.11;95532.91;5040604;28;20486;-84
2021/01/20 06:24:33;;;;;;;4.83;1.57;;;;;;;3.69;80.57;95530.16;5041353;28;20831;-83
2021/01/20 06:27:06;;;;;;;3.60;1.50;;;;;;;3.65;80.67;95521.75;5041083;28;20522;-84
2021/01/20 06:29:38;;;;;;;4.60;1.60;;;;;;;3.67;80.81;95529.94;5042529;28;20573;-83
2021/01/20 06:32:07;;;;;;;3.77;1.80;;;;;;;3.75;80.64;95528.13;5043087;28;20478;-83
2021/01/20 06:34:33;;;;;;;1.30;1.20;;;;;;;3.69;80.45;95530.91;5041574;28;20447;-83
2021/01/20 06:37:00;;;;;;;4.53;2.30;;;;;;;3.65;80.81;95521.75;5039888;28;20454;-85
2021/01/20 06:39:34;;;;;;;3.80;2.00;;;;;;;3.72;80.51;95524.53;5039133;28;20469;-86
2021/01/20 06:42:02;;;;;;;3.30;1.80;;;;;;;3.79;80.22;95523.16;5037819;28;20490;-85
2021/01/20 06:44:30;;;;;;;2.00;1.60;;;;;;;3.76;80.63;95530.25;5038385;28;20453;-86
2021/01/20 06:47:01;;;;;;;6.00;1.83;;;;;;;3.76;80.21;95527.59;5037840;28;20443;-86
2021/01/20 06:49:29;;;;;;;2.73;1.57;;;;;;;3.74;80.46;95529.34;5038084;28;20570;-86
2021/01/20 06:52:10;;;;;;;1.90;1.40;;;;;;;3.68;80.67;95521.44;5039315;28;20550;-85
2021/01/20 06:54:39;;;;;;;1.97;1.20;;;;;;;3.64;81.18;95520.31;5042026;28;20443;-83
2021/01/20 06:57:28;;;;;;;3.67;1.47;;;;;;;3.61;81.51;95519.41;5041730;28;20439;-83
2021/01/20 07:00:21;;;;;;;2.37;1.77;;;;;;;3.58;81.65;95519.69;5040126;28;20493;-89
2021/01/20 07:03:04;;;;;;;2.90;1.93;;;;;;;3.60;82.01;95514.59;5039235;28;20435;-83
2021/01/20 07:05:38;;;;;;;2.83;1.90;;;;;;;3.52;82.08;95519.09;5039299;28;20998;-89
2021/01/20 07:08:06;;;;;;;3.10;1.90;;;;;;;3.52;82.17;95503.81;5038396;28;20436;-88
2021/01/20 07:11:08;;;;;;;2.73;1.83;;;;;;;3.61;81.80;95505.34;5039023;28;20481;-90
2021/01/20 07:13:37;;;;;;;3.67;2.00;;;;;;;3.60;81.65;95519.91;5034235;28;20836;-89
2021/01/20 07:16:07;;;;;;;2.57;1.83;;;;;;;3.62;81.85;95510.16;5040252;28;20447;-89
2021/01/20 07:18:34;;;;;;;2.37;1.80;;;;;;;3.72;81.13;95513.13;5041118;28;20888;-89
2021/01/20 07:21:00;;;;;;;5.60;2.50;;;;;;;3.83;80.10;95504.91;5039911;28;20581;-89
2021/01/20 07:23:28;;;;;;;4.23;2.50;;;;;;;3.80;79.90;95503.25;5041748;28;20443;-90
2021/01/20 07:25:54;;;;;;;3.90;2.40;;;;;;;3.91;79.18;95508.41;5039514;28;20787;-90
2021/01/20 07:28:22;;;;;;;4.23;2.13;;;;;;;4.02;78.53;95508.16;5039052;28;20443;-84
2021/01/20 07:30:50;;;;;;;3.60;2.80;;;;;;;4.02;77.88;95507.44;5037340;28;20521;-84
2021/01/20 07:33:18;;;;;;;6.03;4.10;;;;;;;4.13;77.92;95504.53;5037950;28;20451;-88
2021/01/20 07:35:44;;;;;;;2.50;1.83;;;;;;;4.45;77.33;95505.03;5038233;28;20435;-88
2021/01/20 07:38:11;;;;;;;6.40;2.90;;;;;;;4.58;75.72;95499.63;5037582;28;20454;-88
2021/01/20 07:40:39;;;;;;;3.57;2.10;;;;;;;4.69;74.73;95504.03;5038409;28;20577;-88
2021/01/20 07:43:06;;;;;;;4.10;2.50;;;;;;;4.72;74.70;95500.31;5038023;28;20534;-88
2021/01/20 07:45:38;;;;;;;5.30;2.90;;;;;;;4.71;73.79;95501.53;5037528;28;20522;-87
2021/01/20 07:48:07;;;;;;;2.73;2.27;;;;;;;4.75;74.03;95509.94;5036950;28;20590;-88
2021/01/20 07:50:42;;;;;;;4.77;3.03;;;;;;;4.77;74.06;95494.81;5036521;28;20470;-88
2021/01/20 07:53:12;;;;;;;2.90;2.40;;;;;;;4.76;73.50;95495.34;5038898;28;20936;-88
2021/01/20 07:55:38;;;;;;;3.83;2.40;;;;;;;4.67;73.70;95490.44;5038848;28;20482;-88
2021/01/20 07:58:05;;;;;;;3.67;2.53;;;;;;;4.69;73.07;95493.34;5036748;28;20431;-87
2021/01/20 08:00:40;;;;;;;8.63;3.33;;;;;;;4.67;73.24;95495.78;5037293;28;20485;-89
2021/01/20 08:03:07;;;;;;;3.90;2.30;;;;;;;4.62;73.40;95493.97;5039090;28;20434;-88
2021/01/20 08:05:34;;;;;;;3.57;2.57;;;;;;;4.71;73.10;95494.25;5038331;28;20504;-90
2021/01/20 08:08:05;;;;;;;4.17;2.27;;;;;;;4.66;72.85;95500.44;5040392;28;20450;-90
2021/01/20 08:10:32;;;;;;;4.30;2.50;;;;;;;4.60;73.40;95499.84;5042460;28;20479;-90
2021/01/20 08:13:00;;;;;;;3.40;2.30;;;;;;;4.67;72.73;95495.78;5042415;28;20447;-88
2021/01/20 08:15:31;;;;;;;4.50;3.83;;;;;;;4.69;73.04;95496.72;5054831;28;20443;-90
2021/01/20 08:17:59;;;;;;;7.87;2.60;;;;;;;4.65;73.16;95499.00;5039642;28;20412;-87
2021/01/20 08:20:32;;;;;;;6.10;3.10;;;;;;;4.73;72.83;95496.41;5056441;28;20482;-87
2021/01/20 08:22:59;;;;;;;5.50;3.40;;;;;;;4.79;72.78;95488.97;5058399;28;20526;-88
2021/01/20 08:25:26;;;;;;;5.53;2.50;;;;;;;4.80;72.52;95487.72;5058545;28;20423;-88
2021/01/20 08:27:53;;;;;;;6.63;2.37;;;;;;;4.85;72.58;95484.19;5057436;28;20451;-90
2021/01/20 08:30:30;;;;;;;2.63;2.30;;;;;;;4.90;72.78;95486.00;5039338;28;20515;-91
2021/01/20 08:32:57;;;;;;;3.67;2.63;;;;;;;4.92;73.26;95488.88;5038539;28;20451;-88
2021/01/20 08:35:32;;;;;;;3.93;2.70;;;;;;;5.09;72.34;95486.50;5038485;28;20454;-87
2021/01/20 08:37:58;;;;;;;3.40;2.27;;;;;;;5.05;72.64;95483.44;5040137;28;20412;-84
2021/01/20 08:40:25;;;;;;;5.90;3.53;;;;;;;5.13;72.15;95486.19;5043670;28;20459;-88
2021/01/20 08:42:51;;;;;;;4.73;2.83;;;;;;;5.11;71.66;95478.69;5040531;28;20558;-85
2021/01/20 08:45:31;;;;;;;4.27;3.00;;;;;;;5.07;72.13;95480.97;5039379;28;20463;-87
2021/01/20 08:47:59;;;;;;;4.60;2.90;;;;;;;5.03;72.71;95477.19;5038819;28;20492;-85
2021/01/20 08:50:38;;;;;;;6.33;3.57;;;;;;;5.05;72.63;95470.09;5037596;28;20463;-85
2021/01/20 08:53:06;;;;;;;6.13;3.17;;;;;;;4.95;72.37;95473.75;5040026;28;20442;-86
2021/01/20 08:55:33;;;;;;;5.60;3.00;;;;;;;4.92;72.84;95472.84;5039193;28;20522;-85
2021/01/20 08:58:22;;;;;;;10.23;3.33;;;;;;;4.98;73.01;95467.38;5037055;28;20467;-86
2021/01/20 09:00:50;;;;;;;4.80;3.03;;;;;;;4.98;72.81;95468.06;5038219;28;20558;-91
2021/01/20 09:03:18;;;;;;;4.40;2.50;;;;;;;4.94;73.13;95461.63;5043203;28;20457;-89
2021/01/20 09:05:46;;;;;;;4.43;3.07;;;;;;;4.92;73.24;95456.81;5040261;28;20435;-92
2021/01/20 09:08:13;;;;;;;5.27;3.13;;;;;;;4.93;73.29;95457.53;5044203;28;20391;-92
2021/01/20 09:10:40;;;;;;;5.13;2.50;;;;;;;5.14;72.38;95453.56;5050572;28;20475;-91
2021/01/20 09:13:07;;;;;;;4.93;3.17;;;;;;;5.13;72.69;95451.44;5052242;28;20494;-90
2021/01/20 09:15:33;;;;;;;4.50;3.47;;;;;;;5.03;72.31;95456.53;5040896;28;20450;-91
2021/01/20 09:18:01;;;;;;;3.47;2.73;;;;;;;5.15;72.04;95438.97;5048355;28;20441;-89
2021/01/20 09:20:27;;;;;;;5.93;3.47;;;;;;;5.31;71.57;95448.50;5037482;28;20785;-88
2021/01/20 09:22:55;;;;;;;4.40;2.77;;;;;;;5.25;71.83;95447.94;5036655;28;20541;-88
2021/01/20 09:25:21;;;;;;;6.50;3.57;;;;;;;5.22;72.63;95440.25;5039874;28;20435;-90
2021/01/20 09:27:47;;;;;;;8.80;3.97;;;;;;;5.23;72.70;95442.38;5037896;28;20965;-91
2021/01/20 09:30:14;;;;;;;3.67;2.37;;;;;;;5.25;72.38;95442.59;5036726;28;20455;-91
2021/01/20 09:32:41;;;;;;;5.23;3.40;;;;;;;5.35;72.21;95448.16;5039001;28;20452;-90
2021/01/20 09:35:12;;;;;;;5.37;3.40;;;;;;;5.35;71.90;95446.22;5038438;28;20447;-89
2021/01/20 09:37:40;;;;;;;8.23;4.20;;;;;;;5.28;72.31;95436.19;5036882;28;20406;-92
2021/01/20 09:40:09;;;;;;;6.70;3.90;;;;;;;5.34;72.14;95436.75;5037345;28;20438;-89
2021/01/20 09:42:36;;;;;;;6.83;4.10;;;;;;;5.33;72.46;95443.34;5037251;28;21081;-90
2021/01/20 09:45:03;;;;;;;8.73;4.20;;;;;;;5.33;72.59;95440.66;5016394;28;20443;-89
2021/01/20 09:47:30;;;;;;;6.23;3.80;;;;;;;5.36;73.06;95434.25;5016691;28;20512;-89
2021/01/20 09:49:56;;;;;;;9.80;4.77;;;;;;;5.43;72.22;95434.81;5016514;28;20508;-88
2021/01/20 09:52:25;;;;;;;10.53;4.40;;;;;;;5.33;72.42;95435.31;5016579;28;20452;-87
2021/01/20 09:54:53;;;;;;;5.13;3.90;;;;;;;5.32;72.94;95439.25;5017077;28;20444;-90
2021/01/20 09:57:20;;;;;;;6.07;4.03;;;;;;;5.37;72.83;95429.63;5017673;28;20472;-89
2021/01/20 09:59:47;;;;;;;6.47;4.17;;;;;;;5.47;72.36;95419.16;5019604;28;20452;-88
2021/01/20 10:02:14;;;;;;;8.03;3.90;;;;;;;5.60;71.79;95424.38;5016413;28;20517;-87
2021/01/20 10:04:41;;;;;;;7.53;3.53;;;;;;;5.57;70.86;95420.09;5015986;28;20862;-86
2021/01/20 10:07:08;;;;;;;6.33;3.40;;;;;;;5.61;71.13;95412.41;5016696;28;20446;-89
2021/01/20 10:09:34;;;;;;;5.73;4.10;;;;;;;5.61;70.22;95410.47;5016782;28;20445;-90
2021/01/20 10:12:01;;;;;;;7.20;3.80;;;;;;;5.71;70.49;95400.69;5029513;28;20521;-88
2021/01/20 10:14:28;;;;;;;7.90;3.07;;;;;;;5.67;70.28;95411.00;5036410;28;20435;-86
2021/01/20 10:16:55;;;;;;;6.70;3.50;;;;;;;5.57;71.13;95399.41;5015994;28;20423;-86
2021/01/20 10:19:22;;;;;;;5.40;3.50;;;;;;;5.63;70.72;95396.56;5020713;28;20521;-86
2021/01/20 10:21:48;;;;;;;6.83;3.50;;;;;;;5.72;70.16;95393.38;5036269;28;20471;-90
2021/01/20 10:24:15;;;;;;;5.43;3.37;;;;;;;5.73;69.71;95389.47;5040616;28;20453;-89
2021/01/20 10:26:41;;;;;;;7.93;3.50;;;;;;;5.78;69.77;95394.66;5040298;28;20895;-90
2021/01/20 10:29:08;;;;;;;5.90;3.30;;;;;;;5.93;68.71;95392.03;5039493;28;20931;-90
2021/01/20 10:31:36;;;;;;;4.47;3.37;;;;;;;5.95;69.05;95394.19;5040165;28;20454;-89
2021/01/20 10:34:04;;;;;;;5.07;3.67;;;;;;;6.01;69.29;95388.66;5039836;28;20538;-90
2021/01/20 10:36:31;;;;;;;5.70;3.60;;;;;;;5.99;69.04;95391.16;5042660;28;20497;-90
2021/01/20 10:38:57;;;;;;;9.50;3.40;;;;;;;6.02;69.31;95374.72;5041112;28;20451;-91
2021/01/20 10:41:24;;;;;;;4.93;3.77;;;;;;;6.09;68.60;95381.34;5041045;28;20550;-89
2021/01/20 10:43:52;;;;;;;5.50;3.87;;;;;;;6.14;68.06;95367.78;5040286;28;20900;-90
2021/01/20 10:46:19;;;;;;;6.73;3.73;;;;;;;6.14;68.63;95369.78;5040388;28;20443;-88
2021/01/20 10:48:46;;;;;;;4.87;3.47;;;;;;;6.25;68.75;95359.41;5041357;28;20442;-90
2021/01/20 10:51:12;;;;;;;7.13;4.57;;;;;;;6.22;68.25;95367.78;5044365;28;20459;-91
2021/01/20 10:53:39;;;;;;;6.30;4.10;;;;;;;6.29;68.21;95367.81;5046671;28;20446;-90
2021/01/20 10:56:06;;;;;;;6.77;4.63;;;;;;;6.34;68.11;95363.50;5042812;28;20435;-90
2021/01/20 10:58:33;;;;;;;10.07;5.13;;;;;;;6.37;68.18;95360.47;5039461;28;20451;-89
2021/01/20 11:00:59;;;;;;;12.63;4.63;;;;;;;6.45;67.61;95353.16;5042643;28;20486;-89
2021/01/20 11:03:26;;;;;;;12.80;4.90;;;;;;;6.48;67.26;95354.06;5040613;28;20423;-89
2021/01/20 11:05:53;;;;;;;18.70;4.90;;;;;;;6.49;66.68;95347.44;5043908;28;20402;-88
2021/01/20 11:08:20;;;;;;;11.40;5.30;;;;;;;6.55;66.90;95345.28;5038846;28;20451;-88
2021/01/20 11:10:47;;;;;;;6.77;3.73;;;;;;;6.64;66.22;95341.34;5039173;28;20468;-88
2021/01/20 11:13:13;;;;;;;6.37;3.80;;;;;;;6.62;66.56;95341.88;5041829;28;20441;-88
2021/01/20 11:15:45;;;;;;;10.90;4.20;;;;;;;6.71;65.94;95333.28;5038674;28;20520;-89
2021/01/20 11:18:12;;;;;;;6.17;3.97;;;;;;;6.69;66.21;95329.72;5039544;28;20451;-89
2021/01/20 11:20:38;;;;;;;5.07;4.30;;;;;;;6.84;65.73;95324.31;5042387;28;20834;-84
2021/01/20 11:23:06;;;;;;;4.90;4.10;;;;;;;6.80;65.73;95316.66;5044962;28;20417;-83
2021/01/20 11:25:33;;;;;;;6.10;4.00;;;;;;;6.84;66.26;95308.97;5044425;28;20432;-82
2021/01/20 11:27:59;;;;;;;11.27;5.80;;;;;;;6.80;66.14;95305.22;5043280;28;20422;-82
2021/01/20 11:30:27;;;;;;;8.17;4.43;;;;;;;6.94;65.27;95311.78;5044087;28;20464;-84
2021/01/20 11:32:53;;;;;;;5.90;4.43;;;;;;;6.91;64.97;95307.50;5043000;28;20420;-83
2021/01/20 11:35:20;;;;;;;6.53;4.70;;;;;;;6.86;66.28;95305.75;5044220;28;20409;-84
2021/01/20 11:37:46;;;;;;;7.33;4.63;;;;;;;6.75;66.34;95304.16;5044779;28;20442;-83
2021/01/20 11:40:15;;;;;;;6.70;4.70;;;;;;;6.86;66.51;95305.75;5046943;28;20463;-83
2021/01/20 11:42:42;;;;;;;7.03;4.43;;;;;;;6.78;66.18;95295.03;5043912;28;20566;-84
2021/01/20 11:45:09;;;;;;;9.23;5.23;;;;;;;6.73;66.50;95292.56;5044710;28;20862;-84
2021/01/20 11:47:36;;;;;;;7.07;4.93;;;;;;;6.78;66.49;95291.63;5052020;28;20435;-87